TAM3446 SBGO-SBSP
Flight info
| Callsign | TAM3446 |
|---|---|
| Flight time | 1h 19m |
| Altitude | 36000 |
| Route | ESBOD DCT ISISA/N0441F370 DCT UTLOT |
| Aircraft | A320/M-SDE3FGHIRWY/LB1 |
Departure
| Time | 2026-04-26 20:15 |
|---|---|
| Airport | Santa Genoveva International Airport (SBGO) |
Arrival
| Time | 2026-04-26 21:34 |
|---|---|
| Airport | Congonhas–Deputado Freitas Nobre Airport (SBSP) |
| Time | Latitude | Longitude | Altitude | Speed | Heading |
|---|---|---|---|---|---|
| 2026-04-26 19:52 | -16.62909 | -49.21558 | 2463 ft | 0 kts | 75° |
| 2026-04-26 20:06 | -16.62911 | -49.21565 | 2462 ft | 4 kts | 75° |
| 2026-04-26 20:06 | -16.62919 | -49.21591 | 2465 ft | 4 kts | 66° |
| 2026-04-26 20:06 | -16.62933 | -49.21614 | 2468 ft | 4 kts | 32° |
| 2026-04-26 20:06 | -16.62951 | -49.21619 | 2465 ft | 1 kts | 343° |
| 2026-04-26 20:07 | -16.62952 | -49.21619 | 2462 ft | 0 kts | 343° |
| 2026-04-26 20:09 | -16.62938 | -49.21624 | 2465 ft | 5 kts | 340° |
| 2026-04-26 20:10 | -16.62917 | -49.21668 | 2464 ft | 10 kts | 268° |
| 2026-04-26 20:10 | -16.62940 | -49.21777 | 2455 ft | 21 kts | 258° |
| 2026-04-26 20:10 | -16.62977 | -49.21955 | 2447 ft | 28 kts | 256° |
| 2026-04-26 20:10 | -16.62976 | -49.22155 | 2452 ft | 23 kts | 296° |
| 2026-04-26 20:11 | -16.62900 | -49.22298 | 2452 ft | 22 kts | 300° |
| 2026-04-26 20:11 | -16.62825 | -49.22429 | 2457 ft | 20 kts | 301° |
| 2026-04-26 20:11 | -16.62755 | -49.22554 | 2461 ft | 20 kts | 300° |
| 2026-04-26 20:12 | -16.62611 | -49.22808 | 2465 ft | 21 kts | 301° |
| 2026-04-26 20:12 | -16.62587 | -49.22918 | 2462 ft | 11 kts | 231° |
| 2026-04-26 20:12 | -16.62600 | -49.22931 | 2455 ft | 0 kts | 217° |
| 2026-04-26 20:12 | -16.62602 | -49.22932 | 2459 ft | 0 kts | 217° |
| 2026-04-26 20:13 | -16.62603 | -49.22933 | 2458 ft | 0 kts | 217° |
| 2026-04-26 20:13 | -16.62610 | -49.22938 | 2458 ft | 5 kts | 215° |
| 2026-04-26 20:13 | -16.62658 | -49.22973 | 2461 ft | 12 kts | 214° |
| 2026-04-26 20:14 | -16.62717 | -49.22958 | 2462 ft | 3 kts | 120° |
| 2026-04-26 20:14 | -16.62721 | -49.22951 | 2456 ft | 8 kts | 121° |
| 2026-04-26 20:14 | -16.62888 | -49.22657 | 2465 ft | 88 kts | 120° |
| 2026-04-26 20:14 | -16.63325 | -49.21879 | 2455 ft | 157 kts | 120° |
| 2026-04-26 20:15 | -16.63900 | -49.20852 | 3008 ft | 168 kts | 121° |
| 2026-04-26 20:15 | -16.64534 | -49.19752 | 3613 ft | 186 kts | 121° |
| 2026-04-26 20:15 | -16.65199 | -49.18572 | 4467 ft | 191 kts | 121° |
| 2026-04-26 20:15 | -16.65884 | -49.17343 | 4847 ft | 205 kts | 121° |
| 2026-04-26 20:16 | -16.66759 | -49.16088 | 4971 ft | 227 kts | 143° |
| 2026-04-26 20:16 | -16.68288 | -49.15553 | 5174 ft | 247 kts | 182° |
| 2026-04-26 20:16 | -16.69960 | -49.16166 | 5452 ft | 269 kts | 219° |
| 2026-04-26 20:16 | -16.71136 | -49.17716 | 5994 ft | 278 kts | 238° |
| 2026-04-26 20:17 | -16.72405 | -49.19244 | 6674 ft | 283 kts | 216° |
| 2026-04-26 20:17 | -16.74146 | -49.20215 | 7400 ft | 286 kts | 201° |
| 2026-04-26 20:17 | -16.76041 | -49.20882 | 8128 ft | 289 kts | 196° |
| 2026-04-26 20:17 | -16.77329 | -49.21265 | 8601 ft | 291 kts | 195° |
| 2026-04-26 20:18 | -16.79950 | -49.22041 | 9534 ft | 296 kts | 197° |
| 2026-04-26 20:18 | -16.81928 | -49.22674 | 10223 ft | 299 kts | 198° |
| 2026-04-26 20:18 | -16.83913 | -49.23359 | 10910 ft | 301 kts | 199° |
| 2026-04-26 20:18 | -16.85949 | -49.23913 | 11590 ft | 304 kts | 187° |
| 2026-04-26 20:19 | -16.88078 | -49.23938 | 12117 ft | 314 kts | 173° |
| 2026-04-26 20:19 | -16.90257 | -49.23349 | 12279 ft | 335 kts | 160° |
| 2026-04-26 20:19 | -16.92498 | -49.22501 | 12598 ft | 348 kts | 160° |
| 2026-04-26 20:19 | -16.94793 | -49.21627 | 13148 ft | 353 kts | 160° |
| 2026-04-26 20:20 | -16.97118 | -49.20743 | 13754 ft | 357 kts | 160° |
| 2026-04-26 20:20 | -16.99467 | -49.19853 | 14341 ft | 361 kts | 160° |
| 2026-04-26 20:20 | -17.01838 | -49.18955 | 14909 ft | 364 kts | 160° |
| 2026-04-26 20:20 | -17.04233 | -49.18053 | 15463 ft | 368 kts | 160° |
| 2026-04-26 20:21 | -17.06653 | -49.17144 | 16010 ft | 371 kts | 160° |
| 2026-04-26 20:21 | -17.09095 | -49.16228 | 16540 ft | 375 kts | 160° |
| 2026-04-26 20:21 | -17.11561 | -49.15304 | 17060 ft | 378 kts | 160° |
| 2026-04-26 20:21 | -17.14042 | -49.14370 | 17565 ft | 381 kts | 160° |
| 2026-04-26 20:22 | -17.16547 | -49.13425 | 18060 ft | 384 kts | 160° |
| 2026-04-26 20:22 | -17.19071 | -49.12471 | 18568 ft | 387 kts | 160° |
| 2026-04-26 20:22 | -17.21613 | -49.11510 | 19032 ft | 390 kts | 160° |
| 2026-04-26 20:22 | -17.24176 | -49.10543 | 19520 ft | 393 kts | 160° |
| 2026-04-26 20:23 | -17.26762 | -49.09567 | 19986 ft | 396 kts | 160° |
| 2026-04-26 20:23 | -17.29401 | -49.08709 | 20449 ft | 399 kts | 168° |
| 2026-04-26 20:23 | -17.32160 | -49.08338 | 20893 ft | 401 kts | 179° |
| 2026-04-26 20:23 | -17.34962 | -49.08275 | 21348 ft | 404 kts | 179° |
| 2026-04-26 20:24 | -17.37779 | -49.08215 | 21781 ft | 406 kts | 179° |
| 2026-04-26 20:24 | -17.40617 | -49.08156 | 22207 ft | 410 kts | 179° |
| 2026-04-26 20:24 | -17.43479 | -49.08096 | 22632 ft | 412 kts | 179° |
| 2026-04-26 20:24 | -17.46355 | -49.08033 | 23040 ft | 415 kts | 179° |
| 2026-04-26 20:25 | -17.49250 | -49.07965 | 23434 ft | 417 kts | 179° |
| 2026-04-26 20:25 | -17.51176 | -49.07917 | 23689 ft | 419 kts | 179° |
| 2026-04-26 20:25 | -17.55094 | -49.07822 | 24188 ft | 422 kts | 179° |
| 2026-04-26 20:25 | -17.58001 | -49.07752 | 24544 ft | 425 kts | 179° |
| 2026-04-26 20:26 | -17.60961 | -49.07680 | 24892 ft | 427 kts | 179° |
| 2026-04-26 20:26 | -17.63945 | -49.07608 | 25235 ft | 430 kts | 179° |
| 2026-04-26 20:26 | -17.66941 | -49.07538 | 25575 ft | 432 kts | 179° |
| 2026-04-26 20:26 | -17.69952 | -49.07470 | 25903 ft | 434 kts | 179° |
| 2026-04-26 20:27 | -17.72979 | -49.07402 | 26221 ft | 436 kts | 179° |
| 2026-04-26 20:27 | -17.76022 | -49.07331 | 26521 ft | 439 kts | 179° |
| 2026-04-26 20:27 | -17.79084 | -49.07258 | 26821 ft | 441 kts | 179° |
| 2026-04-26 20:27 | -17.82153 | -49.07187 | 27119 ft | 443 kts | 179° |
| 2026-04-26 20:28 | -17.85245 | -49.07113 | 27416 ft | 445 kts | 179° |
| 2026-04-26 20:28 | -17.88341 | -49.07038 | 27708 ft | 447 kts | 179° |
| 2026-04-26 20:28 | -17.91460 | -49.06964 | 27988 ft | 449 kts | 179° |
| 2026-04-26 20:28 | -17.94589 | -49.06891 | 28276 ft | 451 kts | 179° |
| 2026-04-26 20:29 | -17.97731 | -49.06817 | 28555 ft | 453 kts | 179° |
| 2026-04-26 20:29 | -18.00885 | -49.06740 | 28812 ft | 455 kts | 179° |
| 2026-04-26 20:29 | -18.04057 | -49.06666 | 29064 ft | 457 kts | 179° |
| 2026-04-26 20:29 | -18.07250 | -49.06593 | 29325 ft | 459 kts | 179° |
| 2026-04-26 20:30 | -18.10442 | -49.06521 | 29581 ft | 461 kts | 179° |
| 2026-04-26 20:30 | -18.13655 | -49.06447 | 29823 ft | 463 kts | 179° |
| 2026-04-26 20:30 | -18.16884 | -49.06368 | 30060 ft | 465 kts | 179° |
| 2026-04-26 20:30 | -18.20124 | -49.06287 | 30296 ft | 467 kts | 179° |
| 2026-04-26 20:31 | -18.23374 | -49.06207 | 30531 ft | 468 kts | 179° |
| 2026-04-26 20:31 | -18.26640 | -49.06129 | 30743 ft | 470 kts | 179° |
| 2026-04-26 20:31 | -18.29916 | -49.06051 | 30952 ft | 471 kts | 179° |
| 2026-04-26 20:31 | -18.33200 | -49.05975 | 31145 ft | 473 kts | 179° |
| 2026-04-26 20:32 | -18.36495 | -49.05898 | 31384 ft | 474 kts | 179° |
| 2026-04-26 20:32 | -18.39789 | -49.05818 | 31673 ft | 473 kts | 180° |
| 2026-04-26 20:32 | -18.43082 | -49.05738 | 31957 ft | 473 kts | 179° |
| 2026-04-26 20:32 | -18.46370 | -49.05659 | 32241 ft | 473 kts | 180° |
| 2026-04-26 20:33 | -18.49658 | -49.05580 | 32514 ft | 472 kts | 180° |
| 2026-04-26 20:33 | -18.52946 | -49.05503 | 32785 ft | 473 kts | 180° |
| 2026-04-26 20:33 | -18.56228 | -49.05426 | 33063 ft | 472 kts | 180° |
| 2026-04-26 20:33 | -18.59512 | -49.05349 | 33341 ft | 472 kts | 180° |
| 2026-04-26 20:34 | -18.62789 | -49.05274 | 33611 ft | 472 kts | 180° |
| 2026-04-26 20:34 | -18.66070 | -49.05199 | 33892 ft | 471 kts | 180° |
| 2026-04-26 20:34 | -18.69344 | -49.05125 | 34159 ft | 471 kts | 180° |
| 2026-04-26 20:34 | -18.72618 | -49.05048 | 34426 ft | 470 kts | 180° |
| 2026-04-26 20:35 | -18.75888 | -49.04967 | 34685 ft | 470 kts | 180° |
| 2026-04-26 20:35 | -18.79157 | -49.04883 | 34928 ft | 470 kts | 180° |
| 2026-04-26 20:35 | -18.82419 | -49.04799 | 35160 ft | 469 kts | 180° |
| 2026-04-26 20:35 | -18.85681 | -49.04717 | 35383 ft | 469 kts | 180° |
| 2026-04-26 20:36 | -18.88939 | -49.04636 | 35606 ft | 469 kts | 180° |
| 2026-04-26 20:36 | -18.92196 | -49.04557 | 35835 ft | 468 kts | 180° |
| 2026-04-26 20:36 | -18.95452 | -49.04483 | 36016 ft | 468 kts | 180° |
| 2026-04-26 20:37 | -19.01930 | -49.04335 | 36062 ft | 464 kts | 180° |
| 2026-04-26 20:37 | -19.08377 | -49.04182 | 36061 ft | 463 kts | 180° |
| 2026-04-26 20:38 | -19.14818 | -49.04033 | 36067 ft | 463 kts | 180° |
| 2026-04-26 20:38 | -19.21253 | -49.03877 | 36057 ft | 463 kts | 180° |
| 2026-04-26 20:39 | -19.27688 | -49.03722 | 36054 ft | 463 kts | 180° |
| 2026-04-26 20:39 | -19.34132 | -49.03563 | 36056 ft | 463 kts | 180° |
| 2026-04-26 20:40 | -19.40577 | -49.03400 | 36062 ft | 463 kts | 180° |
| 2026-04-26 20:40 | -19.47027 | -49.03242 | 36061 ft | 463 kts | 181° |
| 2026-04-26 20:41 | -19.53472 | -49.03088 | 36057 ft | 463 kts | 181° |
| 2026-04-26 20:41 | -19.59919 | -49.02933 | 36062 ft | 463 kts | 181° |
| 2026-04-26 20:42 | -19.66370 | -49.02785 | 36062 ft | 463 kts | 181° |
| 2026-04-26 20:42 | -19.72816 | -49.02630 | 36051 ft | 463 kts | 181° |
| 2026-04-26 20:43 | -19.79263 | -49.02475 | 36052 ft | 463 kts | 181° |
| 2026-04-26 20:43 | -19.85705 | -49.02319 | 36036 ft | 464 kts | 181° |
| 2026-04-26 20:44 | -19.92156 | -49.02156 | 36033 ft | 463 kts | 181° |
| 2026-04-26 20:44 | -19.98604 | -49.01991 | 36030 ft | 464 kts | 181° |
| 2026-04-26 20:45 | -20.05013 | -49.01843 | 36024 ft | 463 kts | 181° |
| 2026-04-26 20:45 | -20.11496 | -49.01695 | 36023 ft | 463 kts | 181° |
| 2026-04-26 20:46 | -20.17942 | -49.01535 | 36020 ft | 463 kts | 181° |
| 2026-04-26 20:46 | -20.24346 | -49.01374 | 36013 ft | 463 kts | 181° |
| 2026-04-26 20:47 | -20.30793 | -49.01225 | 36012 ft | 464 kts | 181° |
| 2026-04-26 20:47 | -20.37244 | -49.01073 | 36012 ft | 464 kts | 181° |
| 2026-04-26 20:48 | -20.42648 | -49.00943 | 36009 ft | 464 kts | 181° |
| 2026-04-26 20:48 | -20.49060 | -49.00788 | 36010 ft | 464 kts | 181° |
| 2026-04-26 20:49 | -20.55511 | -49.00625 | 36004 ft | 464 kts | 181° |
| 2026-04-26 20:49 | -20.61963 | -49.00459 | 36003 ft | 464 kts | 181° |
| 2026-04-26 20:50 | -20.68412 | -49.00301 | 35994 ft | 464 kts | 182° |
| 2026-04-26 20:50 | -20.74865 | -49.00149 | 35993 ft | 464 kts | 182° |
| 2026-04-26 20:51 | -20.81307 | -48.99991 | 35990 ft | 463 kts | 182° |
| 2026-04-26 20:51 | -20.87748 | -48.99837 | 35992 ft | 463 kts | 182° |
| 2026-04-26 20:52 | -20.94189 | -48.99682 | 35990 ft | 463 kts | 182° |
| 2026-04-26 20:52 | -21.00637 | -48.99521 | 35988 ft | 463 kts | 182° |
| 2026-04-26 20:53 | -21.07080 | -48.99361 | 35987 ft | 463 kts | 182° |
| 2026-04-26 20:53 | -21.13533 | -48.99203 | 35984 ft | 463 kts | 182° |
| 2026-04-26 20:54 | -21.19933 | -48.99042 | 35988 ft | 463 kts | 182° |
| 2026-04-26 20:54 | -21.26374 | -48.98875 | 35988 ft | 463 kts | 182° |
| 2026-04-26 20:55 | -21.32816 | -48.98720 | 35988 ft | 463 kts | 182° |
| 2026-04-26 20:55 | -21.39261 | -48.98564 | 35989 ft | 463 kts | 182° |
| 2026-04-26 20:56 | -21.45748 | -48.98403 | 35994 ft | 463 kts | 182° |
| 2026-04-26 20:56 | -21.52191 | -48.98242 | 35988 ft | 463 kts | 182° |
| 2026-04-26 20:57 | -21.58630 | -48.98019 | 35991 ft | 465 kts | 177° |
| 2026-04-26 20:57 | -21.61822 | -48.97350 | 35992 ft | 470 kts | 166° |
| 2026-04-26 20:57 | -21.64875 | -48.96062 | 35991 ft | 474 kts | 155° |
| 2026-04-26 20:57 | -21.67684 | -48.94205 | 35989 ft | 476 kts | 144° |
| 2026-04-26 20:58 | -21.70154 | -48.91827 | 35984 ft | 478 kts | 133° |
| 2026-04-26 20:58 | -21.74399 | -48.86297 | 35981 ft | 480 kts | 130° |
| 2026-04-26 20:59 | -21.78616 | -48.80730 | 35976 ft | 481 kts | 130° |
| 2026-04-26 20:59 | -21.82848 | -48.75156 | 35982 ft | 481 kts | 130° |
| 2026-04-26 21:00 | -21.87080 | -48.69570 | 35985 ft | 482 kts | 130° |
| 2026-04-26 21:00 | -21.91309 | -48.63972 | 35990 ft | 482 kts | 130° |
| 2026-04-26 21:01 | -21.95538 | -48.58376 | 35992 ft | 482 kts | 130° |
| 2026-04-26 21:01 | -21.99769 | -48.52777 | 35989 ft | 482 kts | 130° |
| 2026-04-26 21:02 | -22.03997 | -48.47163 | 35983 ft | 483 kts | 130° |
| 2026-04-26 21:02 | -22.08226 | -48.41537 | 35985 ft | 483 kts | 130° |
| 2026-04-26 21:03 | -22.12464 | -48.35906 | 35985 ft | 483 kts | 130° |
| 2026-04-26 21:03 | -22.16704 | -48.30276 | 35986 ft | 483 kts | 130° |
| 2026-04-26 21:04 | -22.20931 | -48.24638 | 35987 ft | 483 kts | 130° |
| 2026-04-26 21:04 | -22.25162 | -48.18991 | 35994 ft | 484 kts | 130° |
| 2026-04-26 21:05 | -22.29394 | -48.13343 | 35997 ft | 484 kts | 130° |
| 2026-04-26 21:05 | -22.33626 | -48.07681 | 35849 ft | 486 kts | 130° |
| 2026-04-26 21:05 | -22.35768 | -48.04813 | 34799 ft | 495 kts | 130° |
| 2026-04-26 21:06 | -22.37913 | -48.01949 | 33974 ft | 498 kts | 130° |
| 2026-04-26 21:06 | -22.40117 | -47.99008 | 33280 ft | 496 kts | 130° |
| 2026-04-26 21:06 | -22.42250 | -47.96155 | 32672 ft | 493 kts | 130° |
| 2026-04-26 21:06 | -22.44394 | -47.93283 | 32114 ft | 489 kts | 130° |
| 2026-04-26 21:07 | -22.46508 | -47.90446 | 31545 ft | 485 kts | 130° |
| 2026-04-26 21:07 | -22.48644 | -47.87579 | 30964 ft | 480 kts | 131° |
| 2026-04-26 21:07 | -22.50702 | -47.84831 | 30490 ft | 474 kts | 131° |
| 2026-04-26 21:07 | -22.52778 | -47.82070 | 29890 ft | 472 kts | 131° |
| 2026-04-26 21:08 | -22.54844 | -47.79326 | 29420 ft | 467 kts | 131° |
| 2026-04-26 21:08 | -22.56889 | -47.76609 | 28810 ft | 465 kts | 131° |
| 2026-04-26 21:08 | -22.58914 | -47.73916 | 28371 ft | 460 kts | 131° |
| 2026-04-26 21:08 | -22.60926 | -47.71238 | 27887 ft | 455 kts | 131° |
| 2026-04-26 21:09 | -22.62907 | -47.68596 | 27426 ft | 450 kts | 131° |
| 2026-04-26 21:09 | -22.64869 | -47.65976 | 26968 ft | 446 kts | 131° |
| 2026-04-26 21:09 | -22.66810 | -47.63380 | 26502 ft | 442 kts | 131° |
| 2026-04-26 21:09 | -22.68735 | -47.60807 | 26041 ft | 438 kts | 131° |
| 2026-04-26 21:10 | -22.70647 | -47.58250 | 25573 ft | 435 kts | 131° |
| 2026-04-26 21:10 | -22.72549 | -47.55710 | 25098 ft | 432 kts | 131° |
| 2026-04-26 21:10 | -22.74434 | -47.53192 | 24610 ft | 429 kts | 131° |
| 2026-04-26 21:10 | -22.76310 | -47.50683 | 24120 ft | 427 kts | 131° |
| 2026-04-26 21:11 | -22.78177 | -47.48186 | 23618 ft | 425 kts | 131° |
| 2026-04-26 21:11 | -22.80035 | -47.45702 | 23109 ft | 423 kts | 131° |
| 2026-04-26 21:11 | -22.81884 | -47.43224 | 22602 ft | 422 kts | 131° |
| 2026-04-26 21:11 | -22.83724 | -47.40757 | 22097 ft | 420 kts | 131° |
| 2026-04-26 21:12 | -22.85552 | -47.38303 | 21696 ft | 415 kts | 131° |
| 2026-04-26 21:12 | -22.87366 | -47.35870 | 21178 ft | 414 kts | 131° |
| 2026-04-26 21:12 | -22.89161 | -47.33459 | 20839 ft | 408 kts | 131° |
| 2026-04-26 21:12 | -22.90937 | -47.31068 | 20358 ft | 406 kts | 131° |
| 2026-04-26 21:13 | -22.92701 | -47.28699 | 19926 ft | 402 kts | 131° |
| 2026-04-26 21:13 | -22.94456 | -47.26347 | 19494 ft | 398 kts | 131° |
| 2026-04-26 21:13 | -22.96178 | -47.24035 | 18764 ft | 392 kts | 131° |
| 2026-04-26 21:13 | -22.97871 | -47.21753 | 18047 ft | 385 kts | 131° |
| 2026-04-26 21:14 | -22.99538 | -47.19511 | 17319 ft | 378 kts | 131° |
| 2026-04-26 21:14 | -23.01292 | -47.17444 | 16589 ft | 370 kts | 142° |
| 2026-04-26 21:14 | -23.03246 | -47.15953 | 15900 ft | 361 kts | 155° |
| 2026-04-26 21:14 | -23.05534 | -47.14931 | 15181 ft | 352 kts | 168° |
| 2026-04-26 21:15 | -23.07907 | -47.14376 | 14463 ft | 347 kts | 172° |
| 2026-04-26 21:15 | -23.10259 | -47.13861 | 13734 ft | 343 kts | 172° |
| 2026-04-26 21:15 | -23.12583 | -47.13349 | 13006 ft | 339 kts | 172° |
| 2026-04-26 21:15 | -23.14880 | -47.12844 | 12281 ft | 335 kts | 172° |
| 2026-04-26 21:16 | -23.17150 | -47.12347 | 11554 ft | 331 kts | 171° |
| 2026-04-26 21:16 | -23.19391 | -47.11853 | 10920 ft | 324 kts | 171° |
| 2026-04-26 21:16 | -23.21532 | -47.11377 | 10660 ft | 305 kts | 171° |
| 2026-04-26 21:16 | -23.23557 | -47.10927 | 10418 ft | 289 kts | 171° |
| 2026-04-26 21:17 | -23.25447 | -47.10508 | 10176 ft | 273 kts | 171° |
| 2026-04-26 21:17 | -23.27281 | -47.10103 | 9927 ft | 266 kts | 171° |
| 2026-04-26 21:17 | -23.29081 | -47.09710 | 9814 ft | 265 kts | 172° |
| 2026-04-26 21:17 | -23.30904 | -47.09313 | 9687 ft | 264 kts | 172° |
| 2026-04-26 21:18 | -23.32706 | -47.08922 | 9558 ft | 264 kts | 172° |
| 2026-04-26 21:18 | -23.34504 | -47.08530 | 9433 ft | 263 kts | 172° |
| 2026-04-26 21:18 | -23.36300 | -47.08140 | 9307 ft | 264 kts | 171° |
| 2026-04-26 21:18 | -23.38098 | -47.07749 | 9183 ft | 263 kts | 171° |
| 2026-04-26 21:19 | -23.39879 | -47.07297 | 9065 ft | 264 kts | 163° |
| 2026-04-26 21:19 | -23.41554 | -47.06478 | 9006 ft | 265 kts | 150° |
| 2026-04-26 21:19 | -23.43043 | -47.05283 | 9015 ft | 267 kts | 138° |
| 2026-04-26 21:19 | -23.44276 | -47.03773 | 9015 ft | 268 kts | 125° |
| 2026-04-26 21:20 | -23.45283 | -47.02066 | 9013 ft | 268 kts | 122° |
| 2026-04-26 21:20 | -23.46281 | -47.00351 | 9023 ft | 268 kts | 123° |
| 2026-04-26 21:20 | -23.47269 | -46.98658 | 9026 ft | 268 kts | 122° |
| 2026-04-26 21:20 | -23.48270 | -46.96942 | 9022 ft | 268 kts | 122° |
| 2026-04-26 21:21 | -23.49270 | -46.95229 | 9025 ft | 268 kts | 123° |
| 2026-04-26 21:21 | -23.50272 | -46.93514 | 9025 ft | 268 kts | 122° |
| 2026-04-26 21:21 | -23.51275 | -46.91800 | 9030 ft | 268 kts | 122° |
| 2026-04-26 21:21 | -23.52277 | -46.90085 | 9030 ft | 268 kts | 122° |
| 2026-04-26 21:22 | -23.53279 | -46.88368 | 9029 ft | 268 kts | 122° |
| 2026-04-26 21:22 | -23.54279 | -46.86654 | 9034 ft | 268 kts | 123° |
| 2026-04-26 21:22 | -23.55281 | -46.84939 | 9042 ft | 269 kts | 122° |
| 2026-04-26 21:23 | -23.57762 | -46.81958 | 9040 ft | 265 kts | 146° |
| 2026-04-26 21:23 | -23.59313 | -46.80876 | 9042 ft | 265 kts | 149° |
| 2026-04-26 21:23 | -23.60886 | -46.79793 | 9045 ft | 269 kts | 149° |
| 2026-04-26 21:23 | -23.62459 | -46.78705 | 9042 ft | 268 kts | 149° |
| 2026-04-26 21:24 | -23.64027 | -46.77613 | 9044 ft | 268 kts | 149° |
| 2026-04-26 21:24 | -23.65603 | -46.76517 | 8874 ft | 270 kts | 149° |
| 2026-04-26 21:24 | -23.67178 | -46.75423 | 8618 ft | 267 kts | 149° |
| 2026-04-26 21:24 | -23.68738 | -46.74339 | 8379 ft | 264 kts | 149° |
| 2026-04-26 21:25 | -23.70281 | -46.73264 | 8143 ft | 263 kts | 148° |
| 2026-04-26 21:25 | -23.71820 | -46.72196 | 7909 ft | 262 kts | 149° |
| 2026-04-26 21:25 | -23.73352 | -46.71133 | 7668 ft | 260 kts | 149° |
| 2026-04-26 21:25 | -23.74878 | -46.70074 | 7436 ft | 259 kts | 149° |
| 2026-04-26 21:26 | -23.76397 | -46.69021 | 7198 ft | 258 kts | 148° |
| 2026-04-26 21:26 | -23.77906 | -46.67973 | 6949 ft | 255 kts | 148° |
| 2026-04-26 21:26 | -23.79385 | -46.66944 | 6708 ft | 250 kts | 148° |
| 2026-04-26 21:26 | -23.80840 | -46.65931 | 6469 ft | 245 kts | 148° |
| 2026-04-26 21:27 | -23.82217 | -46.64892 | 6260 ft | 239 kts | 137° |
| 2026-04-26 21:27 | -23.83191 | -46.63466 | 6047 ft | 233 kts | 113° |
| 2026-04-26 21:27 | -23.83592 | -46.61815 | 5981 ft | 218 kts | 92° |
| 2026-04-26 21:27 | -23.83467 | -46.60231 | 5850 ft | 203 kts | 72° |
| 2026-04-26 21:28 | -23.82919 | -46.58876 | 5725 ft | 188 kts | 53° |
| 2026-04-26 21:28 | -23.82163 | -46.57802 | 5633 ft | 174 kts | 49° |
| 2026-04-26 21:28 | -23.81429 | -46.56790 | 5547 ft | 167 kts | 49° |
| 2026-04-26 21:28 | -23.80687 | -46.55844 | 5463 ft | 162 kts | 37° |
| 2026-04-26 21:29 | -23.79739 | -46.55225 | 5384 ft | 157 kts | 15° |
| 2026-04-26 21:29 | -23.78676 | -46.55042 | 5288 ft | 156 kts | 354° |
| 2026-04-26 21:29 | -23.77662 | -46.55296 | 5195 ft | 149 kts | 335° |
| 2026-04-26 21:29 | -23.76771 | -46.55871 | 5068 ft | 147 kts | 327° |
| 2026-04-26 21:30 | -23.75909 | -46.56470 | 4958 ft | 147 kts | 327° |
| 2026-04-26 21:30 | -23.75038 | -46.57074 | 4860 ft | 147 kts | 327° |
| 2026-04-26 21:30 | -23.74468 | -46.57470 | 4784 ft | 146 kts | 327° |
| 2026-04-26 21:30 | -23.73611 | -46.58064 | 4679 ft | 146 kts | 327° |
| 2026-04-26 21:31 | -23.72754 | -46.58658 | 4575 ft | 146 kts | 327° |
| 2026-04-26 21:31 | -23.71897 | -46.59252 | 4519 ft | 147 kts | 327° |
| 2026-04-26 21:31 | -23.71034 | -46.59850 | 4372 ft | 147 kts | 327° |
| 2026-04-26 21:31 | -23.70176 | -46.60446 | 4203 ft | 145 kts | 327° |
| 2026-04-26 21:32 | -23.69322 | -46.61038 | 4017 ft | 145 kts | 327° |
| 2026-04-26 21:32 | -23.68468 | -46.61629 | 3827 ft | 146 kts | 327° |
| 2026-04-26 21:32 | -23.67612 | -46.62221 | 3638 ft | 146 kts | 327° |
| 2026-04-26 21:32 | -23.66758 | -46.62813 | 3445 ft | 145 kts | 327° |
| 2026-04-26 21:33 | -23.65907 | -46.63403 | 3251 ft | 145 kts | 327° |
| 2026-04-26 21:33 | -23.65055 | -46.63993 | 3057 ft | 145 kts | 327° |
| 2026-04-26 21:33 | -23.64206 | -46.64580 | 2843 ft | 145 kts | 327° |
| 2026-04-26 21:33 | -23.63357 | -46.65170 | 2635 ft | 144 kts | 327° |
| 2026-04-26 21:34 | -23.62622 | -46.65676 | 2605 ft | 79 kts | 328° |
| 2026-04-26 21:34 | -23.62364 | -46.65855 | 2601 ft | 33 kts | 327° |
| 2026-04-26 21:34 | -23.62213 | -46.65964 | 2599 ft | 15 kts | 313° |
| 2026-04-26 21:34 | -23.62217 | -46.66033 | 2599 ft | 5 kts | 219° |
| 2026-04-26 21:35 | -23.62236 | -46.66039 | 2600 ft | 1 kts | 185° |
| 2026-04-26 21:35 | -23.62239 | -46.66040 | 2600 ft | 0 kts | 184° |
| 2026-04-26 21:35 | -23.62263 | -46.66032 | 2600 ft | 8 kts | 154° |
| 2026-04-26 21:35 | -23.62292 | -46.66013 | 2600 ft | 4 kts | 147° |
| 2026-04-26 21:36 | -23.62310 | -46.66000 | 2600 ft | 2 kts | 147° |
| 2026-04-26 21:36 | -23.62319 | -46.65994 | 2600 ft | 1 kts | 147° |
| 2026-04-26 21:36 | -23.62331 | -46.65987 | 2600 ft | 2 kts | 156° |
| 2026-04-26 21:36 | -23.62340 | -46.65989 | 2600 ft | 3 kts | 194° |
| 2026-04-26 21:37 | -23.62361 | -46.66012 | 2600 ft | 4 kts | 230° |
| 2026-04-26 21:37 | -23.62374 | -46.66029 | 2600 ft | 2 kts | 231° |
| 2026-04-26 21:37 | -23.62381 | -46.66038 | 2600 ft | 1 kts | 231° |
| 2026-04-26 21:37 | -23.62387 | -46.66046 | 2600 ft | 3 kts | 231° |
| 2026-04-26 21:38 | -23.62388 | -46.66049 | 2600 ft | 0 kts | 233° |